Time;durP1;ratioP1;P1;durP2;ratioP2;P2;SDS_P1;SDS_P2;PMS_P1;PMS_P2;Temp;Humidity;BMP_temperature;BMP_pressure;BME280_temperature;BME280_humidity;BME280_pressure;Samples;Min_cycle;Max_cycle;Signal;HPM_P1;HPM_P2
2020/12/08 00:01:51;;;;;;;3.70;1.87;;;2.10;99.90;;;;;;5011499;28;20886;-75
2020/12/08 00:04:17;;;;;;;3.08;2.30;;;3.20;99.90;;;;;;5011295;28;20388;-75
2020/12/08 00:06:43;;;;;;;2.75;2.38;;;2.00;99.90;;;;;;5009278;28;20388;-75
2020/12/08 00:09:08;;;;;;;2.63;2.03;;;2.50;99.90;;;;;;5011106;28;20470;-75
2020/12/08 00:11:34;;;;;;;2.30;1.80;;;2.10;99.90;;;;;;5010432;28;20385;-75
2020/12/08 00:14:00;;;;;;;3.53;2.20;;;4.60;99.90;;;;;;5011061;28;20412;-75
2020/12/08 00:16:25;;;;;;;2.30;2.10;;;1.80;99.90;;;;;;5010815;28;20389;-77
2020/12/08 00:18:51;;;;;;;2.63;2.05;;;2.20;99.90;;;;;;5011147;28;20412;-75
2020/12/08 00:21:17;;;;;;;2.30;2.00;;;2.40;99.90;;;;;;5011011;28;20433;-75
2020/12/08 00:23:45;;;;;;;2.80;2.10;;;1.70;99.90;;;;;;5010416;28;20373;-75
2020/12/08 00:26:14;;;;;;;2.40;2.10;;;1.70;99.90;;;;;;5010272;28;20415;-75
2020/12/08 00:28:40;;;;;;;2.63;1.90;;;1.70;99.90;;;;;;5010210;28;20389;-75
2020/12/08 00:31:06;;;;;;;2.65;2.00;;;1.80;99.90;;;;;;4999506;28;20390;-76
2020/12/08 00:33:31;;;;;;;2.38;2.17;;;1.70;99.90;;;;;;4990576;28;20854;-75
2020/12/08 00:35:58;;;;;;;3.00;2.03;;;3.10;99.90;;;;;;4991015;28;20387;-75
2020/12/08 00:38:28;;;;;;;2.72;1.70;;;2.50;99.90;;;;;;4989627;28;20441;-77
2020/12/08 00:40:53;;;;;;;3.37;1.93;;;2.00;99.90;;;;;;4991307;28;20497;-75
2020/12/08 00:43:19;;;;;;;2.17;1.90;;;2.70;99.90;;;;;;4990940;28;20391;-75
2020/12/08 00:45:46;;;;;;;1.88;1.70;;;2.00;99.90;;;;;;4989105;28;20379;-75
2020/12/08 00:48:12;;;;;;;1.80;1.70;;;3.40;99.90;;;;;;4991234;28;20471;-75
2020/12/08 00:50:38;;;;;;;2.55;1.80;;;4.20;99.90;;;;;;4989082;28;20489;-75
2020/12/08 00:53:03;;;;;;;3.67;2.50;;;3.10;99.90;;;;;;4991309;28;20393;-75
2020/12/08 00:55:29;;;;;;;2.53;2.00;;;2.50;99.90;;;;;;4990087;28;20449;-76
2020/12/08 00:57:55;;;;;;;2.20;2.00;;;2.30;99.90;;;;;;4990728;28;20468;-75
2020/12/08 01:00:20;;;;;;;2.00;1.80;;;4.30;99.90;;;;;;4991348;28;20537;-75
2020/12/08 01:02:47;;;;;;;1.80;1.60;;;2.60;99.90;;;;;;4989992;28;20529;-75
2020/12/08 01:05:13;;;;;;;2.50;1.85;;;3.40;99.90;;;;;;4991109;28;20394;-76
2020/12/08 01:07:41;;;;;;;1.80;1.70;;;2.80;99.90;;;;;;4989883;28;20390;-75
2020/12/08 01:10:07;;;;;;;2.17;1.90;;;2.00;99.90;;;;;;4990957;28;20389;-75
2020/12/08 01:12:32;;;;;;;3.20;1.70;;;1.90;99.90;;;;;;4988936;28;20387;-76
2020/12/08 01:14:58;;;;;;;2.90;2.20;;;4.10;99.90;;;;;;4991222;28;20394;-75
2020/12/08 01:17:24;;;;;;;2.33;2.05;;;3.70;99.90;;;;;;4990601;28;20950;-75
2020/12/08 01:19:51;;;;;;;1.80;1.70;;;1.90;99.90;;;;;;4990059;28;20427;-75
2020/12/08 01:22:17;;;;;;;2.00;1.70;;;2.00;99.90;;;;;;4990862;28;20415;-75
2020/12/08 01:24:42;;;;;;;2.17;1.67;;;2.30;99.90;;;;;;4990047;28;20417;-76
2020/12/08 01:27:08;;;;;;;2.20;2.00;;;1.90;99.90;;;;;;4990807;28;20386;-75
2020/12/08 01:29:34;;;;;;;1.90;1.80;;;2.10;99.90;;;;;;4989920;28;20844;-75
2020/12/08 01:31:59;;;;;;;2.17;1.98;;;2.00;99.90;;;;;;5008334;28;20388;-75
2020/12/08 01:34:25;;;;;;;2.22;2.03;;;2.00;99.90;;;;;;5009013;28;20408;-76
2020/12/08 01:36:51;;;;;;;2.30;1.90;;;3.50;99.90;;;;;;5009413;28;20381;-75
2020/12/08 01:39:16;;;;;;;2.10;1.90;;;4.40;99.90;;;;;;5014123;28;20413;-75
2020/12/08 01:41:42;;;;;;;2.00;1.90;;;1.80;99.90;;;;;;5013042;28;20738;-76
2020/12/08 01:44:07;;;;;;;2.20;1.60;;;2.00;99.90;;;;;;5013779;28;20527;-75
2020/12/08 01:46:35;;;;;;;2.45;1.63;;;3.70;99.90;;;;;;5011969;28;20750;-75
2020/12/08 01:49:01;;;;;;;1.70;1.50;;;2.30;99.90;;;;;;5013541;28;20442;-75
2020/12/08 01:51:27;;;;;;;1.60;1.30;;;2.10;99.90;;;;;;5013667;28;20400;-77
2020/12/08 01:53:53;;;;;;;1.52;1.40;;;2.70;99.90;;;;;;5013043;28;20392;-76
2020/12/08 01:56:19;;;;;;;1.33;1.10;;;2.30;99.90;;;;;;5013863;28;20435;-76
2020/12/08 01:58:46;;;;;;;1.50;1.40;;;3.20;99.90;;;;;;5012885;28;20412;-76
2020/12/08 02:01:14;;;;;;;1.80;1.20;;;2.10;99.90;;;;;;5013864;28;20396;-75
2020/12/08 02:03:40;;;;;;;1.90;1.70;;;2.10;99.90;;;;;;5011590;28;20944;-76
2020/12/08 02:06:06;;;;;;;2.60;1.50;;;2.90;99.90;;;;;;5013747;28;20408;-76
2020/12/08 02:08:33;;;;;;;1.60;1.20;;;2.10;99.90;;;;;;5012781;28;20429;-77
2020/12/08 02:11:00;;;;;;;1.90;1.40;;;2.60;99.90;;;;;;5013455;28;20398;-75
2020/12/08 02:13:26;;;;;;;1.50;1.30;;;2.20;99.90;;;;;;5012135;28;20408;-75
2020/12/08 02:15:52;;;;;;;1.48;1.33;;;2.00;99.90;;;;;;5012435;28;20388;-76
2020/12/08 02:18:20;;;;;;;2.38;1.83;;;3.10;99.90;;;;;;5013216;28;20730;-76
2020/12/08 02:20:51;;;;;;;1.50;1.40;;;4.10;99.90;;;;;;5012418;28;20388;-76
2020/12/08 02:23:17;;;;;;;2.30;1.55;;;2.20;99.90;;;;;;5013211;28;20442;-77
2020/12/08 02:25:42;;;;;;;1.80;1.33;;;2.10;99.90;;;;;;5012430;28;20381;-76
2020/12/08 02:28:09;;;;;;;1.52;1.42;;;2.30;99.90;;;;;;5013129;28;20924;-76
2020/12/08 02:30:35;;;;;;;2.20;1.40;;;4.00;99.90;;;;;;5006559;28;20785;-77
2020/12/08 02:33:01;;;;;;;1.40;1.30;;;2.20;99.90;;;;;;4993372;28;20890;-76
2020/12/08 02:35:27;;;;;;;1.42;1.33;;;3.10;99.90;;;;;;4992333;28;20445;-76
2020/12/08 02:37:52;;;;;;;2.10;1.40;;;2.40;99.90;;;;;;4991419;28;20956;-76
2020/12/08 02:40:18;;;;;;;1.60;1.30;;;3.30;99.90;;;;;;4993366;28;20432;-76
2020/12/08 02:42:46;;;;;;;1.70;1.50;;;2.60;99.90;;;;;;4992588;28;20387;-77
2020/12/08 02:45:12;;;;;;;1.33;1.10;;;2.50;99.90;;;;;;4993275;28;20391;-77
2020/12/08 02:47:37;;;;;;;2.05;1.50;;;5.00;99.90;;;;;;4992118;28;20425;-77
2020/12/08 02:50:04;;;;;;;2.25;1.48;;;4.50;99.90;;;;;;4992314;28;20739;-76
2020/12/08 02:52:33;;;;;;;1.90;1.50;;;2.70;99.90;;;;;;4993199;28;20477;-76
2020/12/08 02:54:59;;;;;;;1.30;1.20;;;2.40;99.90;;;;;;4992807;28;20383;-76
2020/12/08 02:57:25;;;;;;;1.30;1.20;;;2.80;99.90;;;;;;4993255;28;20399;-76
2020/12/08 02:59:51;;;;;;;2.00;1.75;;;2.50;99.90;;;;;;4992240;28;20387;-76
2020/12/08 03:02:16;;;;;;;2.10;1.75;;;4.00;99.90;;;;;;4992818;28;20717;-76
2020/12/08 03:04:42;;;;;;;2.00;1.70;;;5.20;99.90;;;;;;4992053;28;20724;-77
2020/12/08 03:07:08;;;;;;;1.90;1.70;;;2.60;99.90;;;;;;4991671;28;20390;-76
2020/12/08 03:09:33;;;;;;;4.90;2.92;;;2.90;99.90;;;;;;4992523;28;20839;-78
2020/12/08 03:11:59;;;;;;;4.07;3.20;;;4.90;99.90;;;;;;4991359;28;20391;-76
2020/12/08 03:14:24;;;;;;;3.80;3.20;;;2.60;99.90;;;;;;4992994;28;21004;-76
2020/12/08 03:16:50;;;;;;;4.97;3.90;;;4.70;99.90;;;;;;4991689;28;20390;-77
2020/12/08 03:19:15;;;;;;;6.97;4.23;;;2.20;99.90;;;;;;4991372;28;20419;-77
2020/12/08 03:21:41;;;;;;;5.03;4.07;;;5.40;99.90;;;;;;4991547;28;20410;-76
2020/12/08 03:24:07;;;;;;;6.23;3.80;;;2.90;99.90;;;;;;4992586;28;20391;-75
2020/12/08 03:26:32;;;;;;;3.80;3.40;;;4.20;99.90;;;;;;4992348;28;20449;-75
2020/12/08 03:28:58;;;;;;;4.63;4.20;;;2.90;99.90;;;;;;4991391;28;20379;-75
2020/12/08 03:31:23;;;;;;;4.45;3.60;;;2.30;99.90;;;;;;5004857;28;20444;-76
2020/12/08 03:33:49;;;;;;;4.22;3.65;;;2.10;99.90;;;;;;5011118;28;20388;-75
2020/12/08 03:36:18;;;;;;;4.10;3.70;;;3.00;99.90;;;;;;5011544;28;20385;-75
2020/12/08 03:38:44;;;;;;;4.32;3.90;;;4.30;99.90;;;;;;5011025;28;20459;-75
2020/12/08 03:41:10;;;;;;;7.55;5.20;;;2.50;99.90;;;;;;5010515;28;20476;-75
2020/12/08 03:43:36;;;;;;;8.77;6.90;;;4.20;99.90;;;;;;5011411;28;20480;-77
2020/12/08 03:46:01;;;;;;;9.83;8.37;;;3.00;99.90;;;;;;5011392;28;20389;-75
2020/12/08 03:48:27;;;;;;;11.43;7.40;;;3.20;99.90;;;;;;5010398;28;20400;-74
2020/12/08 03:50:53;;;;;;;12.35;8.45;;;2.60;99.90;;;;;;5010658;28;20393;-77
2020/12/08 03:53:19;;;;;;;12.27;8.55;;;2.60;99.90;;;;;;5011737;28;20476;-74
2020/12/08 03:55:44;;;;;;;13.60;10.10;;;2.60;99.90;;;;;;5010715;28;20388;-75
2020/12/08 03:58:10;;;;;;;14.73;9.48;;;5.10;99.90;;;;;;5011539;28;20425;-74
2020/12/08 04:00:36;;;;;;;14.25;9.65;;;2.60;99.90;;;;;;5009806;28;20711;-77
2020/12/08 04:03:02;;;;;;;13.90;10.00;;;3.70;99.90;;;;;;5011005;28;20396;-74
2020/12/08 04:05:27;;;;;;;11.88;8.73;;;2.50;99.90;;;;;;5011634;28;20393;-75
2020/12/08 04:07:53;;;;;;;14.02;9.52;;;3.50;99.90;;;;;;5010628;28;20756;-74
2020/12/08 04:10:19;;;;;;;11.90;9.80;;;4.30;99.90;;;;;;5010206;28;20392;-75
2020/12/08 04:12:44;;;;;;;13.65;9.90;;;2.40;99.90;;;;;;5010349;28;20744;-75
2020/12/08 04:15:10;;;;;;;12.67;10.13;;;4.30;99.90;;;;;;5011547;28;20467;-75
2020/12/08 04:17:36;;;;;;;14.37;9.87;;;3.20;99.90;;;;;;5011214;28;20415;-76
2020/12/08 04:20:01;;;;;;;11.40;9.23;;;2.30;99.90;;;;;;5010751;28;20385;-76
2020/12/08 04:22:27;;;;;;;10.00;7.60;;;;;;;;;;5011566;28;20952;-76
2020/12/08 04:24:53;;;;;;;12.68;8.25;;;2.30;99.90;;;;;;5009370;28;20385;-76
2020/12/08 04:27:19;;;;;;;12.55;8.52;;;2.30;99.90;;;;;;5011777;28;20412;-75
2020/12/08 04:29:45;;;;;;;12.63;7.57;;;2.30;99.90;;;;;;5010500;28;20392;-77
2020/12/08 04:32:10;;;;;;;8.98;7.05;;;2.40;99.90;;;;;;4992261;28;20390;-77
2020/12/08 04:34:36;;;;;;;9.60;7.40;;;4.00;99.90;;;;;;4991404;28;20720;-75
2020/12/08 04:37:02;;;;;;;10.48;7.80;;;2.30;99.90;;;;;;4990849;28;20383;-75
2020/12/08 04:39:27;;;;;;;10.10;8.00;;;2.20;99.90;;;;;;4991617;28;20414;-77
2020/12/08 04:41:56;;;;;;;8.13;7.32;;;3.60;99.90;;;;;;4990793;28;20386;-75
2020/12/08 04:44:22;;;;;;;9.13;7.38;;;4.40;99.90;;;;;;4991319;28;20383;-75
2020/12/08 04:46:55;;;;;;;9.55;6.50;;;2.60;99.90;;;;;;4990600;28;20891;-75
2020/12/08 04:49:22;;;;;;;9.52;7.00;;;2.10;99.90;;;;;;4991429;28;20485;-75
2020/12/08 04:51:48;;;;;;;9.05;6.63;;;2.70;99.90;;;;;;4990627;28;20394;-75
2020/12/08 04:54:14;;;;;;;9.52;7.13;;;2.40;99.90;;;;;;4991490;28;20532;-75
2020/12/08 04:56:44;;;;;;;11.27;7.30;;;4.40;99.90;;;;;;4990864;28;20563;-77
2020/12/08 04:59:21;;;;;;;9.23;7.13;;;2.30;99.90;;;;;;4990091;28;20779;-75
2020/12/08 05:01:48;;;;;;;10.23;6.88;;;2.40;99.90;;;;;;4990506;28;20389;-76
2020/12/08 05:04:25;;;;;;;8.93;6.70;;;3.30;99.90;;;;;;4991378;28;20482;-76
2020/12/08 05:07:01;;;;;;;8.13;7.30;;;3.10;99.90;;;;;;4989300;28;20831;-76
2020/12/08 05:09:27;;;;;;;8.23;6.95;;;3.60;99.90;;;;;;4991322;28;20533;-76
2020/12/08 05:11:59;;;;;;;9.32;7.30;;;4.00;99.90;;;;;;4990937;28;20930;-76
2020/12/08 05:14:25;;;;;;;8.90;6.72;;;3.90;99.90;;;;;;4995362;28;20384;-76
2020/12/08 05:17:04;;;;;;;9.40;6.90;;;2.30;99.90;;;;;;4994509;28;20386;-76
2020/12/08 05:19:29;;;;;;;8.93;6.80;;;2.70;99.90;;;;;;4995215;28;20414;-76
2020/12/08 05:21:55;;;;;;;7.55;6.45;;;2.30;99.90;;;;;;4993962;28;20414;-76
2020/12/08 05:24:27;;;;;;;9.60;6.72;;;2.00;99.90;;;;;;4995158;28;20848;-75
2020/12/08 05:27:00;;;;;;;7.78;6.28;;;2.30;99.90;;;;;;4994364;28;20409;-76
2020/12/08 05:29:31;;;;;;;9.38;6.20;;;2.10;99.90;;;;;;4995133;28;20478;-76
2020/12/08 05:31:57;;;;;;;6.93;6.07;;;1.70;99.90;;;;;;5011142;28;20425;-76
2020/12/08 05:34:25;;;;;;;8.13;5.75;;;3.40;99.90;;;;;;5014784;28;20396;-76
2020/12/08 05:36:52;;;;;;;7.10;5.20;;;1.90;99.90;;;;;;5013693;28;20385;-76
2020/12/08 05:39:21;;;;;;;6.13;4.95;;;3.40;99.90;;;;;;5014424;28;20761;-75
2020/12/08 05:41:48;;;;;;;6.45;5.20;;;2.60;99.90;;;;;;4995732;28;20394;-76
2020/12/08 05:44:24;;;;;;;5.78;5.03;;;4.20;99.90;;;;;;4994909;28;20394;-75
2020/12/08 05:46:53;;;;;;;5.95;4.75;;;2.80;99.90;;;;;;4993973;28;20421;-76
2020/12/08 05:49:20;;;;;;;7.00;5.00;;;2.30;99.90;;;;;;5012983;28;20397;-77
2020/12/08 05:51:48;;;;;;;7.28;5.10;;;4.30;99.90;;;;;;5013456;28;20381;-78
2020/12/08 05:54:21;;;;;;;9.00;5.90;;;3.10;99.90;;;;;;5014280;28;20388;-76
2020/12/08 05:56:50;;;;;;;8.07;5.25;;;1.90;99.90;;;;;;5013387;28;20389;-77
2020/12/08 05:59:29;;;;;;;6.57;5.50;;;1.50;99.90;;;;;;5014069;28;20417;-75
2020/12/08 06:01:55;;;;;;;5.90;4.80;;;1.80;99.90;;;;;;5013691;28;20814;-76
2020/12/08 06:04:21;;;;;;;7.32;5.50;;;2.10;99.90;;;;;;5013181;28;20388;-76
2020/12/08 06:06:51;;;;;;;8.77;5.32;;;3.60;99.90;;;;;;5012890;28;20802;-76
2020/12/08 06:09:27;;;;;;;7.03;5.20;;;4.00;99.90;;;;;;5012830;28;20409;-76
2020/12/08 06:11:54;;;;;;;8.77;5.95;;;1.50;99.90;;;;;;5013259;28;20442;-76
2020/12/08 06:14:33;;;;;;;5.40;4.82;;;3.50;99.90;;;;;;5013873;28;20387;-76
2020/12/08 06:17:07;;;;;;;6.68;5.40;;;1.60;99.90;;;;;;5012710;28;20428;-76
2020/12/08 06:19:34;;;;;;;6.22;5.30;;;1.50;99.90;;;;;;5013716;28;20412;-76
2020/12/08 06:22:10;;;;;;;7.97;5.93;;;1.60;99.90;;;;;;5011242;28;20437;-76
2020/12/08 06:24:35;;;;;;;8.07;6.38;;;2.80;99.90;;;;;;5012627;28;20447;-76
2020/12/08 06:27:01;;;;;;;8.73;5.72;;;1.60;99.90;;;;;;5012505;28;20380;-76
2020/12/08 06:29:26;;;;;;;6.70;5.33;;;2.50;99.90;;;;;;5013360;28;20495;-76
2020/12/08 06:31:52;;;;;;;7.50;5.10;;;1.30;99.90;;;;;;4997893;28;20398;-75
2020/12/08 06:34:25;;;;;;;7.53;6.10;;;3.30;99.90;;;;;;4993856;28;20901;-74
2020/12/08 06:36:53;;;;;;;9.98;6.00;;;1.30;99.90;;;;;;4992749;28;20413;-75
2020/12/08 06:39:21;;;;;;;6.63;6.00;;;1.00;99.90;;;;;;4993990;28;20421;-75
2020/12/08 06:41:47;;;;;;;11.10;6.25;;;1.20;99.90;;;;;;4992861;28;20405;-78
2020/12/08 06:44:16;;;;;;;10.77;6.00;;;1.80;99.90;;;;;;4992023;28;20406;-75
2020/12/08 06:46:58;;;;;;;9.50;5.90;;;1.10;99.90;;;;;;4993381;28;20395;-75
2020/12/08 06:49:34;;;;;;;8.05;6.30;;;2.30;99.90;;;;;;4993565;28;20410;-75
2020/12/08 06:51:59;;;;;;;8.60;5.90;;;1.10;99.90;;;;;;4992823;28;20378;-74
2020/12/08 06:54:25;;;;;;;6.55;5.68;;;1.80;99.90;;;;;;4993311;28;20389;-74
2020/12/08 06:56:58;;;;;;;7.78;6.30;;;1.00;99.90;;;;;;4992596;28;20379;-75
2020/12/08 06:59:24;;;;;;;8.60;5.47;;;3.20;99.90;;;;;;4992013;28;20467;-75
2020/12/08 07:01:55;;;;;;;6.37;5.27;;;1.00;99.90;;;;;;4992733;28;20400;-75
2020/12/08 07:04:22;;;;;;;5.93;4.75;;;1.80;99.90;;;;;;4992001;28;20395;-74
2020/12/08 07:06:48;;;;;;;5.90;5.30;;;1.10;99.90;;;;;;4992490;28;20398;-76
2020/12/08 07:09:14;;;;;;;6.22;4.88;;;1.10;99.90;;;;;;4993297;28;20751;-73
2020/12/08 07:11:40;;;;;;;6.50;5.20;;;1.30;99.90;;;;;;4993068;28;20391;-74
2020/12/08 07:14:06;;;;;;;6.88;5.55;;;0.90;99.90;;;;;;4992263;28;20470;-73
2020/12/08 07:16:36;;;;;;;6.55;5.57;;;1.10;99.90;;;;;;4992787;28;20489;-73
2020/12/08 07:19:04;;;;;;;6.20;5.60;;;0.80;99.90;;;;;;4992244;28;20425;-73
2020/12/08 07:21:30;;;;;;;7.07;5.22;;;0.70;99.90;;;;;;4991803;28;20474;-73
2020/12/08 07:23:56;;;;;;;5.57;4.87;;;0.70;99.90;;;;;;4992150;28;20465;-74
2020/12/08 07:26:23;;;;;;;8.27;6.00;;;2.80;99.90;;;;;;4992535;28;20394;-73
2020/12/08 07:28:49;;;;;;;6.32;5.38;;;2.50;99.90;;;;;;4992677;28;20399;-78
2020/12/08 07:31:27;;;;;;;6.05;5.30;;;1.60;99.90;;;;;;5003813;28;20747;-73
2020/12/08 07:33:53;;;;;;;5.63;5.00;;;0.90;99.90;;;;;;5011837;28;20388;-73
2020/12/08 07:36:26;;;;;;;33.90;30.38;;;3.20;99.90;;;;;;5012090;28;20768;-73
2020/12/08 07:38:53;;;;;;;10.15;9.15;;;2.80;99.90;;;;;;5011497;28;20413;-76
2020/12/08 07:41:23;;;;;;;6.10;4.90;;;1.10;99.90;;;;;;5011504;28;20482;-72
2020/12/08 07:43:49;;;;;;;6.07;4.93;;;2.10;99.90;;;;;;5010795;28;20432;-77
2020/12/08 07:46:26;;;;;;;6.90;4.90;;;0.50;99.90;;;;;;5011269;28;20397;-73
2020/12/08 07:49:09;;;;;;;7.85;5.72;;;2.30;99.90;;;;;;5011295;28;20399;-76
2020/12/08 07:51:36;;;;;;;8.07;5.50;;;0.90;99.90;;;;;;5012181;28;20925;-74
2020/12/08 07:54:04;;;;;;;6.05;4.70;;;0.80;99.90;;;;;;5011340;28;20472;-73
2020/12/08 07:56:35;;;;;;;6.95;5.18;;;2.40;99.90;;;;;;5011512;28;20852;-74
2020/12/08 07:59:01;;;;;;;5.72;4.70;;;1.20;99.90;;;;;;5010431;28;20420;-73
2020/12/08 08:01:27;;;;;;;5.75;4.70;;;1.70;99.90;;;;;;5011132;28;20393;-73
2020/12/08 08:03:53;;;;;;;6.20;4.40;;;3.40;99.90;;;;;;5009245;28;20397;-76
2020/12/08 08:06:21;;;;;;;4.57;3.85;;;4.20;99.90;;;;;;5012039;28;20443;-73
2020/12/08 08:08:49;;;;;;;6.95;4.18;;;1.60;99.90;;;;;;5011352;28;20488;-73
2020/12/08 08:11:15;;;;;;;5.00;4.18;;;1.30;99.90;;;;;;5010535;28;20491;-73
2020/12/08 08:13:41;;;;;;;4.80;3.97;;;2.80;99.90;;;;;;5011380;28;20431;-74
2020/12/08 08:16:11;;;;;;;4.40;3.70;;;2.10;99.90;;;;;;5010626;28;20401;-73
2020/12/08 08:18:38;;;;;;;4.97;4.47;;;1.60;99.90;;;;;;5011326;28;20424;-73
2020/12/08 08:21:03;;;;;;;5.50;4.30;;;1.60;99.90;;;;;;5010457;28;20396;-73
2020/12/08 08:23:30;;;;;;;4.85;3.80;;;2.60;99.90;;;;;;5011689;28;20411;-73
2020/12/08 08:25:56;;;;;;;5.15;4.07;;;3.90;99.90;;;;;;5010777;28;20405;-73
2020/12/08 08:28:22;;;;;;;4.38;3.75;;;2.90;99.90;;;;;;5011429;28;20400;-73
2020/12/08 08:30:48;;;;;;;4.72;4.20;;;2.10;99.90;;;;;;5004221;28;20390;-73
2020/12/08 08:33:14;;;;;;;4.50;4.10;;;3.10;99.90;;;;;;4990772;28;21149;-73
2020/12/08 08:35:40;;;;;;;6.00;3.88;;;1.70;99.90;;;;;;4991952;28;20941;-73
2020/12/08 08:38:06;;;;;;;4.60;3.72;;;3.50;99.90;;;;;;4990638;28;20446;-74
2020/12/08 08:40:32;;;;;;;5.18;4.03;;;2.60;99.90;;;;;;4991735;28;20480;-74
2020/12/08 08:42:59;;;;;;;4.68;4.18;;;1.90;99.90;;;;;;4990906;28;20391;-73
2020/12/08 08:45:25;;;;;;;4.68;3.83;;;2.00;99.90;;;;;;4991898;28;20525;-73
2020/12/08 08:47:51;;;;;;;4.50;3.90;;;2.00;99.90;;;;;;4991425;28;20452;-73
2020/12/08 08:50:17;;;;;;;5.10;4.00;;;2.20;99.90;;;;;;4990685;28;20775;-73
2020/12/08 08:52:43;;;;;;;4.80;3.90;;;1.80;99.90;;;;;;4991581;28;20445;-74
2020/12/08 08:55:10;;;;;;;4.30;3.55;;;4.10;99.90;;;;;;4990575;28;20387;-73
2020/12/08 08:57:40;;;;;;;6.13;4.05;;;2.70;99.90;;;;;;4991513;28;20387;-73
2020/12/08 09:00:07;;;;;;;5.18;4.05;;;2.10;99.90;;;;;;4990647;28;20493;-73
2020/12/08 09:02:33;;;;;;;3.95;3.55;;;2.30;99.90;;;;;;4991479;28;20389;-73
2020/12/08 09:04:59;;;;;;;4.40;3.43;;;2.20;99.90;;;;;;4990714;28;20470;-74
2020/12/08 09:07:28;;;;;;;3.38;3.08;;;2.10;99.90;;;;;;4991457;28;20378;-73
2020/12/08 09:09:54;;;;;;;3.97;3.20;;;2.20;99.90;;;;;;4991210;28;20433;-75
2020/12/08 09:12:20;;;;;;;3.72;3.20;;;2.00;99.90;;;;;;4991075;28;20474;-73
2020/12/08 09:14:47;;;;;;;4.40;3.00;;;2.10;99.90;;;;;;4991274;28;20458;-74
2020/12/08 09:17:13;;;;;;;4.18;3.35;;;2.40;99.90;;;;;;4990657;28;20401;-73
2020/12/08 09:19:39;;;;;;;3.40;3.10;;;2.80;99.90;;;;;;4991268;28;20426;-73
2020/12/08 09:22:06;;;;;;;4.55;4.10;;;2.40;99.90;;;;;;4990367;28;20434;-73
2020/12/08 09:24:32;;;;;;;5.22;4.68;;;4.30;99.90;;;;;;4991288;28;20926;-72
2020/12/08 09:26:59;;;;;;;4.53;3.75;;;2.50;99.90;;;;;;4990450;28;20778;-75
2020/12/08 09:29:25;;;;;;;6.00;4.30;;;2.60;99.90;;;;;;4991383;28;20395;-73
2020/12/08 09:31:55;;;;;;;4.82;4.18;;;2.80;99.90;;;;;;5007259;28;20415;-72
2020/12/08 09:34:21;;;;;;;5.55;4.30;;;3.70;99.90;;;;;;5010206;28;20385;-73
2020/12/08 09:36:51;;;;;;;5.20;4.20;;;2.90;99.90;;;;;;5010724;28;20883;-74
2020/12/08 09:39:17;;;;;;;6.22;4.28;;;3.00;99.90;;;;;;5008154;28;20413;-73
2020/12/08 09:41:43;;;;;;;6.50;5.03;;;2.90;99.90;;;;;;5009512;28;20446;-72
2020/12/08 09:44:10;;;;;;;6.80;5.40;;;3.10;99.90;;;;;;5009950;28;20438;-73
2020/12/08 09:46:37;;;;;;;6.97;5.40;;;3.00;99.90;;;;;;5010565;28;20446;-73
2020/12/08 09:49:04;;;;;;;9.27;6.82;;;3.40;99.90;;;;;;5009886;28;20404;-73
2020/12/08 09:51:30;;;;;;;9.15;6.50;;;3.40;99.90;;;;;;5010759;28;20539;-73
2020/12/08 09:53:57;;;;;;;8.32;5.75;;;3.50;99.90;;;;;;5010574;28;20416;-75
2020/12/08 09:56:23;;;;;;;7.68;6.00;;;3.20;99.90;;;;;;5009916;28;20393;-73
2020/12/08 09:58:49;;;;;;;7.85;6.75;;;3.80;99.90;;;;;;5011923;28;20559;-72
2020/12/08 10:01:15;;;;;;;9.45;6.70;;;4.00;99.90;;;;;;5013039;28;20373;-74
2020/12/08 10:03:41;;;;;;;9.82;6.53;;;3.60;99.90;;;;;;5013949;28;20380;-73
2020/12/08 10:06:07;;;;;;;8.50;6.70;;;3.60;99.90;;;;;;5013177;28;20389;-73
2020/12/08 10:08:33;;;;;;;7.85;6.60;;;3.90;99.90;;;;;;5012599;28;20563;-74
2020/12/08 10:10:59;;;;;;;10.90;7.20;;;4.20;99.90;;;;;;5013348;28;20471;-75
2020/12/08 10:13:25;;;;;;;8.20;6.90;;;4.80;99.90;;;;;;5013106;28;20412;-73
2020/12/08 10:15:50;;;;;;;8.02;6.20;;;4.00;99.90;;;;;;5013056;28;20397;-73
2020/12/08 10:18:16;;;;;;;8.97;6.53;;;4.30;99.90;;;;;;5012451;28;20436;-73
2020/12/08 10:20:42;;;;;;;8.03;6.40;;;4.40;99.90;;;;;;5013865;28;20396;-73
2020/12/08 10:23:08;;;;;;;7.43;6.50;;;4.30;99.90;;;;;;5012693;28;20405;-73
2020/12/08 10:25:34;;;;;;;8.30;6.57;;;4.30;99.90;;;;;;5012419;28;20892;-73
2020/12/08 10:28:00;;;;;;;7.73;5.57;;;4.30;99.90;;;;;;5013150;28;20389;-78
2020/12/08 10:30:26;;;;;;;9.95;7.93;;;4.50;99.90;;;;;;5008174;28;20417;-73
2020/12/08 10:32:52;;;;;;;9.90;7.22;;;4.70;99.90;;;;;;4993950;28;20378;-73
2020/12/08 10:35:18;;;;;;;13.88;8.30;;;4.10;99.90;;;;;;4992821;28;20386;-74
2020/12/08 10:37:44;;;;;;;10.95;7.75;;;4.00;99.90;;;;;;4993122;28;20394;-74
2020/12/08 10:40:10;;;;;;;9.40;7.95;;;3.90;99.90;;;;;;4991676;28;20394;-74
2020/12/08 10:42:36;;;;;;;14.70;8.20;;;3.60;99.90;;;;;;4993396;28;20453;-75
2020/12/08 10:45:02;;;;;;;11.73;8.60;;;3.60;99.90;;;;;;4992744;28;20759;-79
2020/12/08 10:47:28;;;;;;;10.27;8.10;;;3.50;99.90;;;;;;4992431;28;20446;-74
2020/12/08 10:49:54;;;;;;;11.57;9.05;;;3.40;99.90;;;;;;4993638;28;20449;-74
2020/12/08 10:52:21;;;;;;;11.90;8.60;;;3.50;99.90;;;;;;4992774;28;21029;-74
2020/12/08 10:54:47;;;;;;;13.02;8.40;;;4.50;99.90;;;;;;4993369;28;20378;-75
2020/12/08 10:57:13;;;;;;;12.88;9.70;;;3.90;99.90;;;;;;4992420;28;20886;-74
2020/12/08 10:59:39;;;;;;;11.20;8.85;;;4.20;99.90;;;;;;4993151;28;20418;-74
2020/12/08 11:02:05;;;;;;;12.88;8.95;;;4.80;99.90;;;;;;4992218;28;20390;-77
2020/12/08 11:04:31;;;;;;;13.90;10.02;;;4.50;99.90;;;;;;4993315;28;20765;-74
2020/12/08 11:07:00;;;;;;;15.13;9.85;;;4.40;99.90;;;;;;4993312;28;20406;-74
2020/12/08 11:09:26;;;;;;;12.20;8.50;;;4.70;99.90;;;;;;4991700;28;20394;-75
2020/12/08 11:11:51;;;;;;;15.45;8.93;;;5.20;99.90;;;;;;4993000;28;20382;-75
2020/12/08 11:14:17;;;;;;;11.00;8.40;;;5.00;99.90;;;;;;4992416;28;20393;-75
2020/12/08 11:16:43;;;;;;;12.00;8.40;;;4.90;99.90;;;;;;4991653;28;20444;-75
2020/12/08 11:19:09;;;;;;;12.05;8.25;;;5.10;99.90;;;;;;4992367;28;20425;-76
2020/12/08 11:21:39;;;;;;;11.90;8.57;;;5.10;99.90;;;;;;4991658;28;20398;-75
2020/12/08 11:24:04;;;;;;;9.07;7.50;;;5.30;99.90;;;;;;4992652;28;20470;-77
2020/12/08 11:26:31;;;;;;;10.33;8.70;;;5.80;99.90;;;;;;4992517;28;20477;-76
2020/12/08 11:28:58;;;;;;;8.45;7.53;;;5.00;99.90;;;;;;4992887;28;20499;-75
2020/12/08 11:31:24;;;;;;;10.82;8.30;;;5.90;99.90;;;;;;5004294;28;20388;-75
2020/12/08 11:33:50;;;;;;;13.73;8.20;;;4.80;99.90;;;;;;5010820;28;20798;-75
2020/12/08 11:36:16;;;;;;;10.00;8.23;;;4.40;99.90;;;;;;5011287;28;20388;-75
2020/12/08 11:38:42;;;;;;;10.02;7.47;;;4.90;99.90;;;;;;5012278;28;20431;-73
2020/12/08 11:41:08;;;;;;;11.93;8.70;;;4.90;99.90;;;;;;5011510;28;20443;-75
2020/12/08 11:43:36;;;;;;;9.93;8.18;;;4.70;99.90;;;;;;5012536;28;20389;-74
2020/12/08 11:46:02;;;;;;;10.90;7.32;;;4.70;99.90;;;;;;5012140;28;20381;-74
2020/12/08 11:48:28;;;;;;;11.18;8.13;;;6.00;99.90;;;;;;5011204;28;20419;-75
2020/12/08 11:50:54;;;;;;;10.95;8.32;;;4.00;99.90;;;;;;5010862;28;20388;-74
2020/12/08 11:53:21;;;;;;;10.30;7.78;;;3.90;99.90;;;;;;5011251;28;20385;-75
2020/12/08 11:55:47;;;;;;;12.52;8.98;;;4.50;99.90;;;;;;5011961;28;20387;-75
2020/12/08 11:58:13;;;;;;;10.60;8.30;;;4.80;99.90;;;;;;5011119;28;20519;-75
2020/12/08 12:00:39;;;;;;;10.98;8.85;;;3.10;99.90;;;;;;5012146;28;20921;-74
2020/12/08 12:03:04;;;;;;;12.60;8.87;;;2.20;99.90;;;;;;5011241;28;20411;-76
2020/12/08 12:05:30;;;;;;;12.40;9.17;;;4.50;99.90;;;;;;5011540;28;20392;-73
2020/12/08 12:07:56;;;;;;;12.63;8.95;;;4.20;99.90;;;;;;5011837;28;20428;-73
2020/12/08 12:10:22;;;;;;;14.45;10.05;;;2.30;99.90;;;;;;5011018;28;20806;-74
2020/12/08 12:12:47;;;;;;;11.87;9.37;;;2.50;99.90;;;;;;5011789;28;20377;-74
2020/12/08 12:15:13;;;;;;;13.30;9.77;;;1.80;99.90;;;;;;5010634;28;20450;-75
2020/12/08 12:17:39;;;;;;;15.43;11.32;;;2.40;99.90;;;;;;5012018;28;20488;-74
2020/12/08 12:20:07;;;;;;;14.07;11.18;;;2.70;99.90;;;;;;5009788;28;20388;-76
2020/12/08 12:22:33;;;;;;;14.07;10.45;;;2.90;99.90;;;;;;5010512;28;20413;-74
2020/12/08 12:24:59;;;;;;;14.18;10.60;;;2.90;99.90;;;;;;5011625;28;20384;-75
2020/12/08 12:27:24;;;;;;;14.63;10.33;;;4.20;99.90;;;;;;5010635;28;20384;-75
2020/12/08 12:29:50;;;;;;;13.40;9.17;;;4.90;99.90;;;;;;5011741;28;20388;-75
2020/12/08 12:32:16;;;;;;;14.20;10.05;;;3.40;99.90;;;;;;4990885;28;20394;-75
2020/12/08 12:34:42;;;;;;;14.00;9.57;;;2.90;99.90;;;;;;4991493;28;20477;-76
2020/12/08 12:37:08;;;;;;;17.30;11.02;;;2.60;99.90;;;;;;4991219;28;20458;-75
2020/12/08 12:39:33;;;;;;;15.25;11.35;;;2.30;99.90;;;;;;4990838;28;20469;-72
2020/12/08 12:41:59;;;;;;;15.77;11.17;;;2.40;99.90;;;;;;4991425;28;20397;-73
2020/12/08 12:44:25;;;;;;;14.65;10.60;;;2.50;99.90;;;;;;4990697;28;20397;-73
2020/12/08 12:46:55;;;;;;;16.80;11.93;;;2.30;99.90;;;;;;4991325;28;20415;-75
2020/12/08 12:49:22;;;;;;;17.40;12.35;;;2.40;99.90;;;;;;4996876;28;20388;-75
2020/12/08 12:51:48;;;;;;;18.50;12.10;;;2.30;99.90;;;;;;5001544;28;20466;-75